< < Back
Terminal Aerodrome Forecast


Current Version              Previous Versions:   1  2  3  4  5  6  7  8  9  

Terminal Aerodrome Forecast

332
FTUS44 KMOB 260500
TAFPNS
TAF
KPNS 260529Z 2606/2706 34004KT P6SM SKC
     FM260900 00000KT 5SM BR SKC
     FM261500 32003KT P6SM SKC=

Latest METAR

211
SAUS70 KWBC 260700 RRF
MTRPNS
METAR KPNS 260653Z AUTO 00000KT 10SM CLR 15/11 A3003 RMK AO2 SLP171
T01500111


USA.gov is the U.S. government's official web portal to all federal, state and local government web resources and services.